Time;durP1;ratioP1;P1;durP2;ratioP2;P2;SDS_P1;SDS_P2;PMS_P1;PMS_P2;Temp;Humidity;BMP_temperature;BMP_pressure;BME280_temperature;BME280_humidity;BME280_pressure;Samples;Min_cycle;Max_cycle;Signal;HPM_P1;HPM_P2
2022/07/25 00:00:38;;;;;;;10.05;8.50;;;;;;;;;;5050440;28;20490;-72
2022/07/25 00:03:05;;;;;;;12.32;9.63;;;;;;;;;;5050548;28;20064;-72
2022/07/25 00:05:37;;;;;;;11.35;10.23;;;;;;;;;;5050516;28;20123;-72
2022/07/25 00:08:05;;;;;;;12.70;11.40;;;;;;;;;;5050544;28;20037;-72
2022/07/25 00:10:32;;;;;;;11.82;10.55;;;;;;;;;;5050490;28;20045;-71
2022/07/25 00:13:00;;;;;;;13.15;11.77;;;;;;;;;;5050401;28;20045;-72
2022/07/25 00:15:27;;;;;;;11.23;10.05;;;;;;;;;;5049989;28;20079;-72
2022/07/25 00:17:55;;;;;;;15.15;10.80;;;;;;;;;;5050519;28;20037;-71
2022/07/25 00:20:22;;;;;;;13.65;10.68;;;;;;;;;;5049850;28;20109;-72
2022/07/25 00:22:50;;;;;;;12.57;10.40;;;;;;;;;;5050547;28;20040;-71
2022/07/25 00:25:17;;;;;;;11.18;9.77;;;;;;;;;;5050216;28;20033;-72
2022/07/25 00:27:45;;;;;;;11.43;10.23;;;;;;;;;;5050433;28;20037;-72
2022/07/25 00:30:13;;;;;;;12.93;10.20;;;;;;;;;;5050194;28;20041;-72
2022/07/25 00:32:40;;;;;;;25.73;10.25;;;;;;;;;;5118415;27;20436;-72
2022/07/25 00:35:08;;;;;;;11.88;9.93;;;;;;;;;;5050107;28;20037;-72
2022/07/25 00:37:35;;;;;;;14.13;11.10;;;;;;;;;;5050106;28;20547;-72
2022/07/25 00:40:03;;;;;;;15.60;10.40;;;;;;;;;;5049933;28;20048;-71
2022/07/25 00:42:32;;;;;;;14.75;10.45;;;;;;;;;;5050010;28;20040;-71
2022/07/25 00:44:59;;;;;;;11.77;10.43;;;;;;;;;;5049897;28;20053;-71
2022/07/25 00:47:27;;;;;;;14.13;10.75;;;;;;;;;;5049849;28;20402;-71
2022/07/25 00:49:54;;;;;;;11.68;10.13;;;;;;;;;;5049948;28;20089;-72
2022/07/25 00:52:23;;;;;;;12.68;9.93;;;;;;;;;;5049766;28;20041;-71
2022/07/25 00:54:51;;;;;;;13.50;10.65;;;;;;;;;;5117993;27;20057;-72
2022/07/25 00:57:18;;;;;;;14.20;10.85;;;;;;;;;;5049841;28;20037;-70
2022/07/25 00:59:46;;;;;;;12.82;10.93;;;;;;;;;;5049806;28;20038;-70
2022/07/25 01:02:13;;;;;;;15.52;10.93;;;;;;;;;;5049478;28;20049;-70
2022/07/25 01:04:41;;;;;;;12.40;11.15;;;;;;;;;;5049738;28;20041;-71
2022/07/25 01:07:08;;;;;;;14.77;11.60;;;;;;;;;;5049526;28;20041;-70
2022/07/25 01:09:36;;;;;;;16.17;12.32;;;;;;;;;;5049652;28;20037;-70
2022/07/25 01:12:04;;;;;;;13.13;11.70;;;;;;;;;;5049457;28;20045;-70
2022/07/25 01:14:37;;;;;;;13.45;11.73;;;;;;;;;;5049541;28;20132;-70
2022/07/25 01:17:05;;;;;;;14.02;12.52;;;;;;;;;;5049498;28;20065;-70
2022/07/25 01:19:32;;;;;;;15.07;12.30;;;;;;;;;;5049626;28;20037;-71
2022/07/25 01:22:00;;;;;;;16.77;14.07;;;;;;;;;;5049221;28;20478;-71
2022/07/25 01:24:28;;;;;;;15.18;12.93;;;;;;;;;;5049459;28;20048;-71
2022/07/25 01:26:56;;;;;;;13.60;12.20;;;;;;;;;;5118189;28;20402;-71
2022/07/25 01:29:23;;;;;;;13.70;11.07;;;;;;;;;;5049448;28;20049;-71
2022/07/25 01:31:51;;;;;;;14.18;12.35;;;;;;;;;;5049437;28;20082;-71
2022/07/25 01:34:18;;;;;;;13.63;11.27;;;;;;;;;;5122042;27;20044;-71
2022/07/25 01:36:46;;;;;;;14.00;12.10;;;;;;;;;;5122103;27;20124;-71
2022/07/25 01:39:13;;;;;;;14.75;12.55;;;;;;;;;;5052890;28;20128;-70
2022/07/25 01:41:41;;;;;;;15.50;13.82;;;;;;;;;;5052726;28;20041;-70
2022/07/25 01:44:08;;;;;;;17.00;14.68;;;;;;;;;;5052884;28;20048;-70
2022/07/25 01:46:36;;;;;;;19.20;14.35;;;;;;;;;;5052601;28;20059;-70
2022/07/25 01:49:04;;;;;;;18.92;15.40;;;;;;;;;;5052605;28;20562;-70
2022/07/25 01:51:32;;;;;;;17.80;13.77;;;;;;;;;;5052596;28;20044;-70
2022/07/25 01:53:59;;;;;;;19.63;15.20;;;;;;;;;;5052532;28;20041;-70
2022/07/25 01:56:26;;;;;;;22.90;15.60;;;;;;;;;;5052493;28;20048;-70
2022/07/25 01:58:58;;;;;;;18.70;14.85;;;;;;;;;;5052576;28;20040;-70
2022/07/25 02:01:26;;;;;;;19.10;15.43;;;;;;;;;;5052703;27;20045;-70
2022/07/25 02:03:53;;;;;;;16.67;14.27;;;;;;;;;;5052742;28;20049;-69
2022/07/25 02:06:21;;;;;;;18.38;14.63;;;;;;;;;;5052263;28;20506;-70
2022/07/25 02:08:48;;;;;;;18.02;16.23;;;;;;;;;;5052369;28;20482;-70
2022/07/25 02:11:16;;;;;;;18.67;14.23;;;;;;;;;;5052368;28;20037;-70
2022/07/25 02:13:44;;;;;;;18.05;14.40;;;;;;;;;;5052303;28;20043;-70
2022/07/25 02:16:11;;;;;;;18.00;15.13;;;;;;;;;;5052285;28;20041;-72
2022/07/25 02:18:40;;;;;;;20.08;15.63;;;;;;;;;;5052251;28;20037;-70
2022/07/25 02:21:09;;;;;;;18.35;15.45;;;;;;;;;;5052132;28;20070;-70
2022/07/25 02:23:41;;;;;;;17.15;15.43;;;;;;;;;;5052096;28;20041;-70
2022/07/25 02:26:08;;;;;;;18.55;14.30;;;;;;;;;;5052073;28;20094;-72
2022/07/25 02:28:36;;;;;;;18.10;15.68;;;;;;;;;;5052223;28;20045;-70
2022/07/25 02:31:04;;;;;;;20.08;16.42;;;;;;;;;;5052147;28;20052;-71
2022/07/25 02:33:32;;;;;;;20.98;17.05;;;;;;;;;;5051988;28;20082;-70
2022/07/25 02:35:59;;;;;;;16.80;14.93;;;;;;;;;;5051794;28;20036;-71
2022/07/25 02:38:27;;;;;;;19.20;16.63;;;;;;;;;;5051925;28;20045;-70
2022/07/25 02:40:54;;;;;;;20.15;17.58;;;;;;;;;;5051724;28;20048;-72
2022/07/25 02:43:22;;;;;;;20.58;16.08;;;;;;;;;;5051767;28;20091;-70
2022/07/25 02:45:49;;;;;;;20.15;14.48;;;;;;;;;;5051714;28;20394;-70
2022/07/25 02:48:17;;;;;;;19.27;15.35;;;;;;;;;;5051816;28;20037;-70
2022/07/25 02:50:44;;;;;;;19.92;15.68;;;;;;;;;;5051714;28;20399;-70
2022/07/25 02:53:12;;;;;;;20.73;17.98;;;;;;;;;;5051806;28;20045;-70
2022/07/25 02:55:39;;;;;;;22.88;17.90;;;;;;;;;;5051613;28;20056;-70
2022/07/25 02:58:07;;;;;;;19.70;17.52;;;;;;;;;;5120438;27;20072;-70
2022/07/25 03:00:34;;;;;;;20.85;17.75;;;;;;;;;;5051553;28;20047;-70
2022/07/25 03:03:02;;;;;;;21.00;18.17;;;;;;;;;;5052088;28;20045;-70
2022/07/25 03:05:30;;;;;;;21.92;17.05;;;;;;;;;;5051657;27;20048;-70
2022/07/25 03:07:58;;;;;;;19.83;17.30;;;;;;;;;;5051585;28;20045;-72
2022/07/25 03:10:25;;;;;;;20.75;17.50;;;;;;;;;;5051353;28;20037;-72
2022/07/25 03:12:53;;;;;;;17.98;16.05;;;;;;;;;;5051413;28;20037;-72
2022/07/25 03:15:20;;;;;;;15.32;13.73;;;;;;;;;;5051489;28;20081;-72
2022/07/25 03:17:48;;;;;;;19.65;15.70;;;;;;;;;;5051469;28;20561;-72
2022/07/25 03:20:15;;;;;;;21.35;16.92;;;;;;;;;;5051385;28;20045;-72
2022/07/25 03:22:43;;;;;;;25.13;22.13;;;;;;;;;;5120158;27;20065;-72
2022/07/25 03:25:10;;;;;;;46.47;40.25;;;;;;;;;;5051108;28;20041;-72
2022/07/25 03:27:47;;;;;;;44.80;36.97;;;;;;;;;;5119753;27;20055;-72
2022/07/25 03:30:15;;;;;;;20.90;17.60;;;;;;;;;;5051124;28;20051;-72
2022/07/25 03:32:42;;;;;;;38.72;32.30;;;;;;;;;;5051359;28;20033;-72
2022/07/25 03:35:11;;;;;;;26.17;22.85;;;;;;;;;;5051029;28;20048;-72
2022/07/25 03:37:38;;;;;;;38.33;27.33;;;;;;;;;;5051001;28;20049;-72
2022/07/25 03:40:06;;;;;;;24.42;21.38;;;;;;;;;;5051124;28;20037;-72
2022/07/25 03:42:33;;;;;;;22.73;17.55;;;;;;;;;;5050743;28;20065;-72
2022/07/25 03:45:02;;;;;;;31.23;25.70;;;;;;;;;;5050950;28;20051;-72
2022/07/25 03:47:37;;;;;;;21.05;16.83;;;;;;;;;;5050758;28;20041;-72
2022/07/25 03:50:24;;;;;;;31.02;27.02;;;;;;;;;;5050988;27;20634;-71
2022/07/25 03:52:58;;;;;;;33.15;27.52;;;;;;;;;;5050716;28;20406;-72
2022/07/25 03:55:26;;;;;;;20.05;15.68;;;;;;;;;;5050030;28;20045;-72
2022/07/25 03:57:53;;;;;;;27.08;24.27;;;;;;;;;;5050753;28;20089;-72
2022/07/25 04:00:21;;;;;;;32.13;28.63;;;;;;;;;;5050609;28;20498;-72
2022/07/25 04:02:48;;;;;;;21.10;16.42;;;;;;;;;;5050584;28;20041;-71
2022/07/25 04:05:16;;;;;;;19.60;16.73;;;;;;;;;;5050535;28;20551;-71
2022/07/25 04:07:43;;;;;;;38.67;30.48;;;;;;;;;;5050596;28;20053;-71
2022/07/25 04:10:11;;;;;;;32.35;28.33;;;;;;;;;;5119862;27;20041;-72
2022/07/25 04:12:38;;;;;;;41.40;32.60;;;;;;;;;;5050664;28;20049;-72
2022/07/25 04:15:06;;;;;;;40.40;34.63;;;;;;;;;;5043054;28;20094;-72
2022/07/25 04:17:34;;;;;;;23.20;17.98;;;;;;;;;;5075245;27;20071;-72
2022/07/25 04:20:06;;;;;;;20.35;18.15;;;;;;;;;;5119008;27;20048;-72
2022/07/25 04:22:34;;;;;;;20.88;18.15;;;;;;;;;;5038256;28;20042;-72
2022/07/25 04:25:01;;;;;;;23.83;19.50;;;;;;;;;;5030424;28;20090;-73
2022/07/25 04:27:29;;;;;;;20.08;16.25;;;;;;;;;;5030356;28;20045;-72
2022/07/25 04:29:59;;;;;;;18.55;15.57;;;;;;;;;;5030344;28;20523;-72
2022/07/25 04:32:26;;;;;;;17.48;15.70;;;;;;;;;;5030233;28;20396;-72
2022/07/25 04:34:54;;;;;;;24.20;20.98;;;;;;;;;;5030480;28;20398;-73
2022/07/25 04:37:21;;;;;;;31.17;25.70;;;;;;;;;;5030470;28;20046;-72
2022/07/25 04:39:49;;;;;;;25.05;22.35;;;;;;;;;;5047129;28;20063;-74
2022/07/25 04:42:17;;;;;;;20.50;17.55;;;;;;;;;;5049964;28;20097;-73
2022/07/25 04:44:44;;;;;;;20.25;16.25;;;;;;;;;;5047295;28;20045;-73
2022/07/25 04:47:12;;;;;;;17.88;15.98;;;;;;;;;;5105953;27;20065;-72
2022/07/25 04:49:39;;;;;;;17.25;15.38;;;;;;;;;;5046424;28;20513;-73
2022/07/25 04:52:07;;;;;;;19.15;16.15;;;;;;;;;;5048945;28;20065;-72
2022/07/25 04:54:34;;;;;;;17.95;15.63;;;;;;;;;;5045917;28;20371;-72
2022/07/25 04:57:04;;;;;;;17.63;15.20;;;;;;;;;;5048421;28;20074;-71
2022/07/25 04:59:31;;;;;;;15.32;13.80;;;;;;;;;;5048618;27;20486;-71
2022/07/25 05:01:59;;;;;;;16.65;13.75;;;;;;;;;;5038169;28;20060;-71
2022/07/25 05:04:27;;;;;;;13.70;11.82;;;;;;;;;;5113660;27;20064;-72
2022/07/25 05:06:55;;;;;;;19.45;14.00;;;;;;;;;;5115378;27;20593;-71
2022/07/25 05:09:22;;;;;;;14.98;13.43;;;;;;;;;;5111145;27;20116;-71
2022/07/25 05:11:50;;;;;;;15.15;13.32;;;;;;;;;;5049218;28;20068;-72
2022/07/25 05:14:23;;;;;;;17.00;13.80;;;;;;;;;;5049125;27;20033;-71
2022/07/25 05:16:50;;;;;;;17.17;15.48;;;;;;;;;;5049159;28;20152;-71
2022/07/25 05:19:18;;;;;;;18.35;16.42;;;;;;;;;;5100150;28;20124;-71
2022/07/25 05:21:45;;;;;;;18.77;16.83;;;;;;;;;;5049179;28;20482;-71
2022/07/25 05:24:13;;;;;;;17.88;16.08;;;;;;;;;;5049273;28;20040;-71
2022/07/25 05:26:43;;;;;;;18.75;16.80;;;;;;;;;;5049224;28;20089;-71
2022/07/25 05:29:11;;;;;;;19.67;16.77;;;;;;;;;;5049146;28;20037;-72
2022/07/25 05:31:39;;;;;;;18.98;16.35;;;;;;;;;;5049183;28;20037;-71
2022/07/25 05:34:06;;;;;;;20.38;17.17;;;;;;;;;;5049122;28;20041;-72
2022/07/25 05:36:34;;;;;;;16.98;14.48;;;;;;;;;;5048311;28;20052;-72
2022/07/25 05:39:02;;;;;;;13.85;11.93;;;;;;;;;;5048858;28;20033;-72
2022/07/25 05:41:30;;;;;;;17.70;13.13;;;;;;;;;;5048904;28;20547;-72
2022/07/25 05:43:57;;;;;;;12.80;11.50;;;;;;;;;;5048794;28;20394;-72
2022/07/25 05:46:25;;;;;;;16.05;13.90;;;;;;;;;;5048761;28;20085;-71
2022/07/25 05:48:56;;;;;;;14.98;13.25;;;;;;;;;;5059455;28;20056;-72
2022/07/25 05:51:23;;;;;;;12.80;11.50;;;;;;;;;;5048829;27;20037;-71
2022/07/25 05:53:54;;;;;;;13.20;11.80;;;;;;;;;;5034657;28;20103;-72
2022/07/25 05:56:21;;;;;;;13.98;12.35;;;;;;;;;;5047599;28;20025;-71
2022/07/25 05:58:49;;;;;;;12.65;11.45;;;;;;;;;;5108933;28;20039;-72
2022/07/25 06:01:20;;;;;;;16.00;12.50;;;;;;;;;;5091165;28;20041;-71
2022/07/25 06:03:47;;;;;;;13.80;11.65;;;;;;;;;;5047930;28;20045;-71
2022/07/25 06:06:15;;;;;;;13.13;11.77;;;;;;;;;;5048650;28;20074;-71
2022/07/25 06:08:42;;;;;;;13.98;11.60;;;;;;;;;;5048622;28;20048;-73
2022/07/25 06:11:11;;;;;;;15.63;11.70;;;;;;;;;;5048647;27;20124;-71
2022/07/25 06:13:39;;;;;;;13.52;12.13;;;;;;;;;;5048387;28;20489;-71
2022/07/25 06:16:07;;;;;;;13.48;12.00;;;;;;;;;;5048484;27;20094;-71
2022/07/25 06:18:35;;;;;;;14.30;12.65;;;;;;;;;;5049650;28;20044;-72
2022/07/25 06:21:02;;;;;;;13.45;12.05;;;;;;;;;;5051913;28;20432;-72
2022/07/25 06:23:31;;;;;;;13.95;12.35;;;;;;;;;;5071880;27;20044;-71
2022/07/25 06:25:58;;;;;;;13.98;12.60;;;;;;;;;;5078635;27;20037;-71
2022/07/25 06:28:26;;;;;;;13.65;11.60;;;;;;;;;;5051701;28;20074;-72
2022/07/25 06:30:56;;;;;;;12.88;11.60;;;;;;;;;;5050801;28;20041;-71
2022/07/25 06:33:24;;;;;;;12.95;11.65;;;;;;;;;;5041524;28;20113;-71
2022/07/25 06:35:51;;;;;;;13.75;12.35;;;;;;;;;;5051840;28;20045;-72
2022/07/25 06:38:19;;;;;;;14.68;13.05;;;;;;;;;;5051532;28;20040;-72
2022/07/25 06:40:46;;;;;;;14.95;13.45;;;;;;;;;;5051881;28;20472;-72
2022/07/25 06:43:14;;;;;;;15.23;13.73;;;;;;;;;;5051233;28;20045;-73
2022/07/25 06:45:45;;;;;;;15.15;13.55;;;;;;;;;;5051605;28;20554;-73
2022/07/25 06:48:14;;;;;;;15.98;14.23;;;;;;;;;;5051720;28;20074;-72
2022/07/25 06:50:42;;;;;;;14.75;12.57;;;;;;;;;;5050746;28;20037;-72
2022/07/25 06:53:09;;;;;;;13.15;11.18;;;;;;;;;;5050336;28;20044;-74
2022/07/25 06:55:37;;;;;;;12.05;10.73;;;;;;;;;;5051616;28;20213;-72
2022/07/25 06:58:04;;;;;;;11.85;10.40;;;;;;;;;;5050197;28;20040;-73
2022/07/25 07:00:34;;;;;;;11.88;10.68;;;;;;;;;;5050381;28;20051;-72
2022/07/25 07:03:02;;;;;;;12.20;10.95;;;;;;;;;;5051558;28;20045;-72
2022/07/25 07:05:32;;;;;;;12.98;11.60;;;;;;;;;;5051479;28;20356;-72
2022/07/25 07:07:59;;;;;;;10.32;9.30;;;;;;;;;;5051523;28;20041;-73
2022/07/25 07:10:27;;;;;;;10.65;9.57;;;;;;;;;;5051722;28;20111;-72
2022/07/25 07:13:05;;;;;;;11.98;9.05;;;;;;;;;;5051425;28;20397;-72
2022/07/25 07:15:35;;;;;;;11.73;9.82;;;;;;;;;;5118076;27;20033;-72
2022/07/25 07:18:02;;;;;;;11.15;9.52;;;;;;;;;;5049790;28;20029;-72
2022/07/25 07:20:30;;;;;;;11.00;9.98;;;;;;;;;;5049532;28;20037;-72
2022/07/25 07:22:58;;;;;;;9.95;8.95;;;;;;;;;;5050071;28;20037;-72
2022/07/25 07:25:25;;;;;;;11.70;9.70;;;;;;;;;;5050608;28;20494;-72
2022/07/25 07:27:55;;;;;;;10.10;9.10;;;;;;;;;;5050905;28;20052;-72
2022/07/25 07:30:22;;;;;;;11.43;9.30;;;;;;;;;;5050475;27;20045;-73
2022/07/25 07:33:04;;;;;;;11.02;9.32;;;;;;;;;;5111091;27;20098;-72
2022/07/25 07:35:31;;;;;;;10.30;9.30;;;;;;;;;;5051158;28;20394;-72
2022/07/25 07:38:01;;;;;;;10.07;9.18;;;;;;;;;;5051020;28;20049;-72
2022/07/25 07:40:29;;;;;;;10.23;8.90;;;;;;;;;;5050886;28;20049;-72
2022/07/25 07:42:59;;;;;;;11.77;10.48;;;;;;;;;;5050767;28;20057;-71
2022/07/25 07:45:27;;;;;;;10.38;9.30;;;;;;;;;;5050911;28;20576;-72
2022/07/25 07:47:55;;;;;;;9.98;9.07;;;;;;;;;;5051088;28;20044;-72
2022/07/25 07:50:24;;;;;;;9.70;8.23;;;;;;;;;;5050875;28;20090;-74
2022/07/25 07:52:52;;;;;;;9.15;8.35;;;;;;;;;;5050761;28;20048;-72
2022/07/25 07:58:06;;;;;;;9.40;8.55;;;;;;;;;;5050873;28;20547;-73
2022/07/25 08:00:35;;;;;;;9.88;8.88;;;;;;;;;;5119240;27;20047;-73
2022/07/25 08:03:03;;;;;;;9.77;8.77;;;;;;;;;;5050598;28;20053;-72
2022/07/25 08:05:32;;;;;;;9.45;8.50;;;;;;;;;;5051022;28;20041;-72
2022/07/25 08:08:00;;;;;;;10.65;9.32;;;;;;;;;;5119356;27;20513;-72
2022/07/25 08:10:29;;;;;;;9.43;8.43;;;;;;;;;;5050646;28;20394;-72
2022/07/25 08:12:57;;;;;;;10.40;9.18;;;;;;;;;;5050603;28;20045;-72
2022/07/25 08:15:24;;;;;;;11.05;10.00;;;;;;;;;;5050551;28;20090;-72
2022/07/25 08:17:52;;;;;;;9.25;8.35;;;;;;;;;;5050489;28;20041;-73
2022/07/25 08:20:23;;;;;;;10.23;8.18;;;;;;;;;;5050636;28;20049;-73
2022/07/25 08:23:06;;;;;;;9.73;8.73;;;;;;;;;;5050295;28;20391;-73
2022/07/25 08:25:34;;;;;;;10.65;9.55;;;;;;;;;;5050282;28;20048;-72
2022/07/25 08:28:03;;;;;;;11.30;9.30;;;;;;;;;;5050296;28;20044;-73
2022/07/25 08:30:30;;;;;;;10.50;8.88;;;;;;;;;;5050915;28;20397;-73
2022/07/25 08:33:00;;;;;;;11.07;9.98;;;;;;;;;;5050202;28;20049;-73
2022/07/25 08:35:28;;;;;;;11.15;9.30;;;;;;;;;;5050196;28;20439;-73
2022/07/25 08:37:56;;;;;;;9.82;8.93;;;;;;;;;;5050272;28;20033;-72
2022/07/25 08:40:25;;;;;;;9.43;8.60;;;;;;;;;;5050243;28;20047;-73
2022/07/25 08:42:57;;;;;;;10.52;8.82;;;;;;;;;;5049717;28;20049;-72
2022/07/25 08:45:26;;;;;;;10.30;9.30;;;;;;;;;;5050065;28;20076;-73
2022/07/25 08:47:54;;;;;;;10.88;9.77;;;;;;;;;;5118829;27;20045;-73
2022/07/25 08:50:24;;;;;;;9.82;8.93;;;;;;;;;;5050080;28;20490;-73
2022/07/25 08:52:52;;;;;;;13.95;11.00;;;;;;;;;;5050004;28;20059;-73
2022/07/25 08:55:41;;;;;;;9.90;9.10;;;;;;;;;;5049877;28;20053;-72
2022/07/25 08:58:11;;;;;;;11.13;10.10;;;;;;;;;;5049865;28;20041;-72
2022/07/25 09:00:40;;;;;;;11.60;10.50;;;;;;;;;;5049816;28;20048;-73
2022/07/25 09:03:08;;;;;;;9.95;9.02;;;;;;;;;;5048547;28;20375;-72
2022/07/25 09:05:36;;;;;;;10.23;9.23;;;;;;;;;;5049780;28;20105;-71
2022/07/25 09:08:11;;;;;;;10.13;8.88;;;;;;;;;;5047681;28;20052;-72
2022/07/25 09:10:41;;;;;;;9.63;8.57;;;;;;;;;;5048987;28;20033;-72
2022/07/25 09:13:12;;;;;;;10.23;9.20;;;;;;;;;;5046868;28;20065;-72
2022/07/25 09:16:02;;;;;;;12.43;10.02;;;;;;;;;;5104138;27;20383;-72
2022/07/25 09:18:32;;;;;;;10.48;9.57;;;;;;;;;;5117926;27;20461;-72
2022/07/25 09:21:00;;;;;;;10.00;8.73;;;;;;;;;;5049026;28;20041;-73
2022/07/25 09:23:35;;;;;;;9.68;8.80;;;;;;;;;;5048008;28;20045;-73
2022/07/25 09:26:03;;;;;;;11.15;10.15;;;;;;;;;;5039014;28;20101;-73
2022/07/25 09:28:31;;;;;;;11.25;9.60;;;;;;;;;;5045665;28;20044;-73
2022/07/25 09:31:00;;;;;;;12.10;11.00;;;;;;;;;;5049434;28;20076;-73
2022/07/25 09:33:28;;;;;;;9.82;8.82;;;;;;;;;;5048879;28;20079;-72
2022/07/25 09:35:56;;;;;;;9.88;8.98;;;;;;;;;;5048929;28;20094;-72
2022/07/25 09:38:24;;;;;;;9.80;8.57;;;;;;;;;;5049193;28;20131;-72
2022/07/25 09:40:58;;;;;;;9.77;8.40;;;;;;;;;;5049028;28;20041;-72
2022/07/25 09:43:38;;;;;;;8.93;8.13;;;;;;;;;;5048816;28;20081;-72
2022/07/25 09:46:06;;;;;;;10.63;8.73;;;;;;;;;;5047737;28;20124;-71
2022/07/25 09:48:35;;;;;;;10.05;9.02;;;;;;;;;;5049052;28;20052;-72
2022/07/25 09:51:03;;;;;;;10.23;8.30;;;;;;;;;;5048586;28;20037;-74
2022/07/25 09:53:31;;;;;;;10.13;9.13;;;;;;;;;;5118827;27;20048;-74
2022/07/25 09:55:59;;;;;;;13.00;11.63;;;;;;;;;;5120660;27;20033;-73
2022/07/25 09:58:27;;;;;;;16.08;14.05;;;;;;;;;;5052418;28;20486;-73
2022/07/25 10:01:03;;;;;;;11.98;10.88;;;;;;;;;;5052057;28;20033;-73
2022/07/25 10:03:50;;;;;;;10.63;9.57;;;;;;;;;;5052301;28;20424;-72
2022/07/25 10:06:19;;;;;;;10.80;9.80;;;;;;;;;;5052263;28;20086;-73
2022/07/25 10:08:47;;;;;;;14.02;11.90;;;;;;;;;;5051933;28;20051;-73
2022/07/25 10:11:18;;;;;;;9.65;8.55;;;;;;;;;;5120727;27;20048;-72
2022/07/25 10:13:46;;;;;;;9.27;8.40;;;;;;;;;;5120523;27;20119;-72
2022/07/25 10:16:15;;;;;;;8.82;8.02;;;;;;;;;;5051724;28;20075;-72
2022/07/25 10:18:48;;;;;;;9.75;8.70;;;;;;;;;;5051893;28;20045;-72
2022/07/25 10:21:16;;;;;;;9.17;8.17;;;;;;;;;;5052196;28;20391;-72
2022/07/25 10:24:03;;;;;;;8.80;7.70;;;;;;;;;;5051748;28;20052;-73
2022/07/25 10:26:32;;;;;;;9.02;8.20;;;;;;;;;;5051725;28;20044;-73
2022/07/25 10:29:00;;;;;;;9.60;7.78;;;;;;;;;;5051723;28;20037;-75
2022/07/25 10:31:31;;;;;;;9.85;8.75;;;;;;;;;;5051861;28;20069;-72
2022/07/25 10:34:16;;;;;;;9.35;8.20;;;;;;;;;;5051589;27;20048;-73
2022/07/25 10:36:46;;;;;;;10.05;9.00;;;;;;;;;;5051561;28;20464;-73
2022/07/25 10:39:15;;;;;;;9.20;7.93;;;;;;;;;;5051787;28;20041;-73
2022/07/25 10:41:44;;;;;;;9.65;8.73;;;;;;;;;;5051658;28;20144;-73
2022/07/25 10:44:15;;;;;;;10.35;9.35;;;;;;;;;;5051429;28;20044;-73
2022/07/25 10:46:43;;;;;;;10.75;8.13;;;;;;;;;;5051718;28;20037;-74
2022/07/25 10:49:24;;;;;;;8.93;8.00;;;;;;;;;;5050965;28;20045;-72
2022/07/25 10:52:00;;;;;;;7.85;7.03;;;;;;;;;;5051230;28;20041;-73
2022/07/25 10:54:32;;;;;;;8.77;7.88;;;;;;;;;;5051247;28;20044;-72
2022/07/25 10:57:00;;;;;;;8.50;7.68;;;;;;;;;;5050392;28;20131;-71
2022/07/25 10:59:30;;;;;;;7.93;7.20;;;;;;;;;;5049839;28;20587;-71
2022/07/25 11:01:58;;;;;;;9.48;7.65;;;;;;;;;;5051487;28;20448;-71
2022/07/25 11:04:26;;;;;;;8.45;7.57;;;;;;;;;;5051397;28;20045;-70
2022/07/25 11:06:54;;;;;;;34.60;30.90;;;;;;;;;;5051511;27;20051;-71
2022/07/25 11:09:23;;;;;;;13.40;10.88;;;;;;;;;;5051437;28;20055;-71
2022/07/25 11:11:56;;;;;;;21.05;18.95;;;;;;;;;;5051424;28;20045;-71
2022/07/25 11:14:24;;;;;;;27.13;24.33;;;;;;;;;;5051420;28;20504;-71
2022/07/25 11:16:53;;;;;;;10.13;9.15;;;;;;;;;;5051206;28;20033;-68
2022/07/25 11:19:25;;;;;;;9.02;7.55;;;;;;;;;;5047683;28;20033;-70
2022/07/25 11:21:59;;;;;;;9.18;7.43;;;;;;;;;;5049849;28;20033;-69
2022/07/25 11:24:42;;;;;;;9.50;7.70;;;;;;;;;;5049914;28;20140;-70
2022/07/25 11:27:19;;;;;;;8.10;7.28;;;;;;;;;;5049468;28;20045;-70
2022/07/25 11:29:47;;;;;;;8.50;7.30;;;;;;;;;;5050648;28;20049;-70
2022/07/25 11:32:14;;;;;;;7.57;6.75;;;;;;;;;;5050305;28;20037;-69
2022/07/25 11:34:43;;;;;;;7.90;7.20;;;;;;;;;;5047227;28;20069;-70
2022/07/25 11:37:12;;;;;;;8.73;6.68;;;;;;;;;;5040035;28;20444;-69
2022/07/25 11:39:41;;;;;;;7.93;7.13;;;;;;;;;;5049201;28;20064;-69
2022/07/25 11:42:15;;;;;;;10.23;9.20;;;;;;;;;;5050829;28;20041;-69
2022/07/25 11:44:47;;;;;;;8.45;7.53;;;;;;;;;;5049415;28;20057;-70
2022/07/25 11:47:24;;;;;;;6.93;6.20;;;;;;;;;;5039465;28;20037;-67
2022/07/25 11:49:53;;;;;;;6.85;6.18;;;;;;;;;;5049819;28;20048;-67
2022/07/25 11:52:28;;;;;;;7.90;6.82;;;;;;;;;;5049205;28;20032;-67
2022/07/25 11:54:56;;;;;;;8.50;6.80;;;;;;;;;;5049686;27;20457;-68
2022/07/25 11:57:24;;;;;;;10.90;6.80;;;;;;;;;;5049696;28;20036;-68
2022/07/25 11:59:53;;;;;;;6.53;5.93;;;;;;;;;;5049469;28;20481;-69
2022/07/25 12:02:24;;;;;;;8.40;7.00;;;;;;;;;;5049683;28;20045;-68
2022/07/25 12:05:01;;;;;;;7.10;6.43;;;;;;;;;;5049785;28;20048;-69
2022/07/25 12:07:38;;;;;;;6.85;6.07;;;;;;;;;;5037447;28;20045;-68
2022/07/25 12:10:07;;;;;;;7.45;6.65;;;;;;;;;;5117334;27;20067;-68
2022/07/25 12:12:42;;;;;;;8.45;6.82;;;;;;;;;;5049117;28;20037;-69
2022/07/25 12:15:10;;;;;;;7.30;6.60;;;;;;;;;;5049687;28;20052;-68
2022/07/25 12:17:38;;;;;;;7.65;6.80;;;;;;;;;;5049398;28;20033;-69
2022/07/25 12:20:10;;;;;;;8.00;7.15;;;;;;;;;;5084825;27;20090;-69
2022/07/25 12:22:38;;;;;;;8.07;7.32;;;;;;;;;;5049363;28;20375;-69
2022/07/25 12:25:07;;;;;;;7.90;6.95;;;;;;;;;;5080382;27;20140;-69
2022/07/25 12:27:35;;;;;;;7.55;6.75;;;;;;;;;;5035818;28;20041;-69
2022/07/25 12:30:04;;;;;;;8.63;7.72;;;;;;;;;;5049810;28;20054;-69
2022/07/25 12:32:32;;;;;;;8.38;7.45;;;;;;;;;;5101297;28;20127;-69
2022/07/25 12:34:59;;;;;;;8.13;7.32;;;;;;;;;;5049734;28;20128;-68
2022/07/25 12:37:27;;;;;;;7.65;6.82;;;;;;;;;;5049758;28;20121;-69
2022/07/25 12:39:55;;;;;;;7.18;6.47;;;;;;;;;;5049701;28;20037;-69
2022/07/25 12:42:23;;;;;;;7.03;6.32;;;;;;;;;;5117883;27;20474;-69
2022/07/25 12:44:51;;;;;;;9.02;6.50;;;;;;;;;;5048688;28;20060;-67
2022/07/25 12:47:19;;;;;;;7.28;6.05;;;;;;;;;;5049300;28;20029;-68
2022/07/25 12:49:47;;;;;;;7.43;6.43;;;;;;;;;;5049438;28;20037;-68
2022/07/25 12:52:14;;;;;;;7.25;6.40;;;;;;;;;;5049202;28;20071;-68
2022/07/25 12:54:42;;;;;;;9.30;6.57;;;;;;;;;;5073577;27;20093;-69
2022/07/25 12:57:10;;;;;;;7.65;6.35;;;;;;;;;;5049217;28;20037;-69
2022/07/25 12:59:38;;;;;;;8.75;6.13;;;;;;;;;;5049151;28;20041;-68
2022/07/25 13:02:05;;;;;;;7.97;6.72;;;;;;;;;;5049311;28;20046;-67
2022/07/25 13:04:33;;;;;;;7.82;6.25;;;;;;;;;;5049073;28;20064;-68
2022/07/25 13:07:01;;;;;;;6.53;5.93;;;;;;;;;;5049306;28;20049;-68
2022/07/25 13:09:29;;;;;;;6.55;5.95;;;;;;;;;;5049217;28;20124;-68
2022/07/25 13:11:56;;;;;;;8.27;6.43;;;;;;;;;;5049253;28;20040;-68
2022/07/25 13:14:24;;;;;;;7.68;6.47;;;;;;;;;;5048990;28;20045;-69
2022/07/25 13:16:52;;;;;;;7.30;6.40;;;;;;;;;;5048869;28;20039;-68
2022/07/25 13:19:23;;;;;;;6.78;6.10;;;;;;;;;;5048980;28;20105;-68
2022/07/25 13:21:50;;;;;;;8.70;6.90;;;;;;;;;;5048943;28;20029;-69
2022/07/25 13:24:18;;;;;;;8.68;7.38;;;;;;;;;;5048894;28;20045;-69
2022/07/25 13:26:45;;;;;;;8.75;7.85;;;;;;;;;;5048992;28;20041;-69
2022/07/25 13:29:13;;;;;;;8.75;6.68;;;;;;;;;;5050901;28;20040;-69
2022/07/25 13:31:41;;;;;;;7.85;6.45;;;;;;;;;;5052410;28;20041;-69
2022/07/25 13:34:09;;;;;;;8.50;7.60;;;;;;;;;;5052203;28;20041;-69
2022/07/25 13:36:38;;;;;;;7.72;6.93;;;;;;;;;;5051766;28;20082;-69
2022/07/25 13:39:06;;;;;;;9.55;8.55;;;;;;;;;;5051752;28;20639;-69
2022/07/25 13:41:34;;;;;;;7.85;7.07;;;;;;;;;;5052506;28;20065;-69
2022/07/25 13:44:01;;;;;;;7.72;6.93;;;;;;;;;;5052299;28;20109;-69
2022/07/25 13:46:29;;;;;;;7.93;7.10;;;;;;;;;;5051812;28;20062;-69
2022/07/25 13:48:56;;;;;;;7.95;7.25;;;;;;;;;;5052392;28;20047;-70
2022/07/25 13:51:24;;;;;;;7.82;7.13;;;;;;;;;;5052163;28;20056;-70
2022/07/25 13:53:52;;;;;;;6.63;5.97;;;;;;;;;;5052381;28;20036;-69
2022/07/25 13:56:19;;;;;;;7.68;6.40;;;;;;;;;;5052113;28;20112;-69
2022/07/25 13:58:47;;;;;;;7.32;6.63;;;;;;;;;;5052267;28;20041;-69
2022/07/25 14:01:14;;;;;;;15.45;6.95;;;;;;;;;;5052026;28;20387;-69
2022/07/25 14:03:42;;;;;;;6.82;6.07;;;;;;;;;;5052107;28;20442;-69
2022/07/25 14:06:10;;;;;;;6.97;6.30;;;;;;;;;;5051698;28;20045;-69
2022/07/25 14:08:41;;;;;;;7.40;6.70;;;;;;;;;;5052115;28;20044;-69
2022/07/25 14:11:08;;;;;;;7.22;6.10;;;;;;;;;;5051981;28;20041;-68
2022/07/25 14:13:36;;;;;;;7.20;6.50;;;;;;;;;;5051966;28;20037;-69
2022/07/25 14:16:04;;;;;;;7.13;6.43;;;;;;;;;;5051789;28;20094;-69
2022/07/25 14:18:32;;;;;;;8.35;6.60;;;;;;;;;;5051606;28;20065;-69
2022/07/25 14:20:59;;;;;;;8.82;6.90;;;;;;;;;;5051126;28;20045;-69
2022/07/25 14:23:27;;;;;;;8.27;6.45;;;;;;;;;;5047895;28;20048;-68
2022/07/25 14:25:57;;;;;;;6.70;6.00;;;;;;;;;;5104058;27;20490;-68
2022/07/25 14:28:25;;;;;;;6.88;6.22;;;;;;;;;;5051607;28;20033;-68
2022/07/25 14:30:53;;;;;;;6.85;6.15;;;;;;;;;;5051281;28;20094;-69
2022/07/25 14:33:20;;;;;;;7.85;6.55;;;;;;;;;;5050440;28;20509;-69
2022/07/25 14:35:48;;;;;;;7.93;6.97;;;;;;;;;;5051152;28;20116;-68
2022/07/25 14:38:16;;;;;;;8.90;6.13;;;;;;;;;;5094213;27;20143;-68
2022/07/25 14:40:44;;;;;;;7.18;6.47;;;;;;;;;;5051042;28;20085;-68